createdAt,value
2022-09-18T00:00:53.800Z,100
2022-09-18T00:03:18.919Z,100
2022-09-18T00:05:45.018Z,100
2022-09-18T00:08:11.099Z,99.8
2022-09-18T00:10:37.196Z,98.8
2022-09-18T00:13:03.287Z,98.6
2022-09-18T00:15:29.386Z,98.8
2022-09-18T00:17:55.491Z,99.2
2022-09-18T00:20:21.567Z,99.1
2022-09-18T00:22:47.663Z,97.9
2022-09-18T00:25:13.770Z,97.7
2022-09-18T00:27:39.874Z,98
2022-09-18T00:30:05.963Z,97.3
2022-09-18T00:32:32.062Z,97.3
2022-09-18T00:34:57.161Z,96.5
2022-09-18T00:37:23.269Z,96.8
2022-09-18T00:39:49.364Z,96.4
2022-09-18T00:42:15.460Z,96.3
2022-09-18T00:44:41.538Z,96.6
2022-09-18T00:47:07.638Z,96.7
2022-09-18T00:49:33.738Z,95.9
2022-09-18T00:51:59.847Z,96.2
2022-09-18T00:54:25.944Z,96.7
2022-09-18T00:56:52.037Z,96.9
2022-09-18T00:59:18.123Z,97.1
2022-09-18T01:01:44.211Z,97.6
2022-09-18T01:04:10.303Z,96.8
2022-09-18T01:06:35.426Z,96.4
2022-09-18T01:09:01.513Z,96.4
2022-09-18T01:11:27.623Z,96.3
2022-09-18T01:13:53.704Z,96.9
2022-09-18T01:16:19.808Z,96.4
2022-09-18T01:18:45.905Z,96.5
2022-09-18T01:21:11.977Z,96.8
2022-09-18T01:23:38.093Z,96.7
2022-09-18T01:26:04.194Z,97
2022-09-18T01:28:30.280Z,97.3
2022-09-18T01:30:56.359Z,95.3
2022-09-18T01:33:22.483Z,95.6
2022-09-18T01:35:48.559Z,96
2022-09-18T01:38:13.671Z,95
2022-09-18T01:40:39.764Z,94
2022-09-18T01:43:05.867Z,94.3
2022-09-18T01:45:31.949Z,94.2
2022-09-18T01:47:58.059Z,94.1
2022-09-18T01:50:24.141Z,94.8
2022-09-18T01:52:50.241Z,93.6
2022-09-18T01:55:16.356Z,94.2
2022-09-18T01:57:42.445Z,94.3
2022-09-18T02:00:08.524Z,94.6
2022-09-18T02:02:34.630Z,94.3
2022-09-18T02:05:00.725Z,95.1
2022-09-18T02:07:26.823Z,94.9
2022-09-18T02:09:51.923Z,94.1
2022-09-18T02:12:18.013Z,95.3
2022-09-18T02:14:44.110Z,94.3
2022-09-18T02:17:10.206Z,94.2
2022-09-18T02:19:36.313Z,93.6
2022-09-18T02:22:02.404Z,93.7
2022-09-18T02:24:28.502Z,93.7
2022-09-18T02:26:54.587Z,93.7
2022-09-18T02:29:20.679Z,93.7
2022-09-18T02:31:46.791Z,94.1
2022-09-18T02:34:12.876Z,94.4
2022-09-18T02:36:38.981Z,94.9
2022-09-18T02:39:05.059Z,95.1
2022-09-18T02:41:30.175Z,95.3
2022-09-18T02:43:56.280Z,95.9
2022-09-18T02:46:22.374Z,95.3
2022-09-18T02:48:48.461Z,95.3
2022-09-18T02:51:14.563Z,96.2
2022-09-18T02:53:40.655Z,95.7
2022-09-18T02:56:06.753Z,95.5
2022-09-18T02:58:32.841Z,96.3
2022-09-18T03:00:58.940Z,96.1
2022-09-18T03:03:25.031Z,96.7
2022-09-18T03:05:51.134Z,96.3
2022-09-18T03:08:17.237Z,96.6
2022-09-18T03:10:43.327Z,96.3
2022-09-18T03:13:08.434Z,97.1
2022-09-18T03:15:34.540Z,97.1
2022-09-18T03:18:00.626Z,97.3
2022-09-18T03:20:26.730Z,97.7
2022-09-18T03:22:52.810Z,97.7
2022-09-18T03:25:18.904Z,98.6
2022-09-18T03:27:45.021Z,98.2
2022-09-18T03:30:11.107Z,97.6
2022-09-18T03:32:37.202Z,97.6
2022-09-18T03:35:03.286Z,97.7
2022-09-18T03:37:29.400Z,98.1
2022-09-18T03:39:55.479Z,98.1
2022-09-18T03:42:21.579Z,98
2022-09-18T03:44:46.685Z,98.7
2022-09-18T03:47:12.790Z,98.5
2022-09-18T03:49:38.871Z,98.6
2022-09-18T03:52:04.983Z,99.1
2022-09-18T03:54:31.079Z,99.1
2022-09-18T03:56:57.173Z,99.2
2022-09-18T03:59:23.265Z,99.3
2022-09-18T04:01:49.351Z,99.8
2022-09-18T04:04:15.447Z,100
2022-09-18T04:06:41.550Z,100
2022-09-18T04:09:07.648Z,100
2022-09-18T04:11:33.743Z,100
2022-09-18T04:13:59.836Z,100
2022-09-18T04:16:24.954Z,100
2022-09-18T04:18:51.041Z,100
2022-09-18T04:21:17.138Z,100
2022-09-18T04:23:43.224Z,100
2022-09-18T04:26:09.320Z,100
2022-09-18T04:28:35.427Z,100
2022-09-18T04:31:00.536Z,100
2022-09-18T04:33:26.667Z,100
2022-09-18T04:35:52.722Z,100
2022-09-18T04:38:18.824Z,100
2022-09-18T04:40:44.919Z,100
2022-09-18T04:43:11.015Z,100
2022-09-18T04:45:37.117Z,100
2022-09-18T04:48:03.218Z,100
2022-09-18T04:50:29.318Z,100
2022-09-18T04:52:55.392Z,100
2022-09-18T04:55:21.485Z,100
2022-09-18T04:57:47.593Z,100
2022-09-18T05:00:13.686Z,100
2022-09-18T05:02:38.837Z,100
2022-09-18T05:05:04.899Z,100
2022-09-18T05:07:30.988Z,100
2022-09-18T05:09:57.078Z,100
2022-09-18T05:12:23.178Z,100
2022-09-18T05:14:49.279Z,100
2022-09-18T05:17:15.367Z,100
2022-09-18T05:19:41.459Z,100
2022-09-18T05:22:07.563Z,100
2022-09-18T05:24:33.651Z,100
2022-09-18T05:26:59.753Z,100
2022-09-18T05:29:25.848Z,100
2022-09-18T05:31:51.932Z,100
2022-09-18T05:34:17.055Z,100
2022-09-18T05:36:43.163Z,100
2022-09-18T05:39:09.311Z,100
2022-09-18T05:41:35.339Z,100
2022-09-18T05:44:01.440Z,100
2022-09-18T05:46:27.537Z,100
2022-09-18T05:48:53.617Z,100
2022-09-18T05:51:19.721Z,100
2022-09-18T05:53:45.810Z,100
2022-09-18T05:56:11.925Z,100
2022-09-18T05:58:38.012Z,100
2022-09-18T06:01:04.117Z,100
2022-09-18T06:03:30.206Z,100
2022-09-18T06:05:55.300Z,100
2022-09-18T06:08:21.407Z,100
2022-09-18T06:10:47.507Z,100
2022-09-18T06:13:13.595Z,100
2022-09-18T06:15:39.684Z,100
2022-09-18T06:18:05.778Z,100
2022-09-18T06:20:31.880Z,100
2022-09-18T06:22:57.985Z,100
2022-09-18T06:25:24.066Z,100
2022-09-18T06:27:50.180Z,100
2022-09-18T06:30:16.257Z,100
2022-09-18T06:32:42.357Z,100
2022-09-18T06:35:08.478Z,100
2022-09-18T06:37:33.570Z,100
2022-09-18T06:39:59.672Z,100
2022-09-18T06:42:25.782Z,100
2022-09-18T06:44:51.839Z,100
2022-09-18T06:47:17.950Z,100
2022-09-18T06:49:44.049Z,100
2022-09-18T06:52:10.133Z,100
2022-09-18T06:54:36.235Z,100
2022-09-18T06:57:02.335Z,100
2022-09-18T06:59:28.417Z,100
2022-09-18T07:01:54.509Z,100
2022-09-18T07:04:20.656Z,100
2022-09-18T07:06:46.705Z,100
2022-09-18T07:09:11.813Z,100
2022-09-18T07:11:37.915Z,100
2022-09-18T07:14:04.016Z,100
2022-09-18T07:16:30.101Z,100
2022-09-18T07:18:56.205Z,100
2022-09-18T07:21:22.293Z,100
2022-09-18T07:23:48.393Z,100
2022-09-18T07:26:14.498Z,100
2022-09-18T07:28:40.594Z,100
2022-09-18T07:33:32.842Z,100
2022-09-18T07:35:58.874Z,100
2022-09-18T07:38:24.969Z,100
2022-09-18T07:40:50.071Z,100
2022-09-18T07:43:16.165Z,100
2022-09-18T07:45:42.314Z,100
2022-09-18T07:48:08.368Z,99.7
2022-09-18T07:50:34.466Z,100
2022-09-18T07:53:00.576Z,100
2022-09-18T07:55:26.660Z,100
2022-09-18T07:57:52.756Z,100
2022-09-18T08:00:18.836Z,99.8
2022-09-18T08:02:44.935Z,99.6
2022-09-18T08:05:11.035Z,99
2022-09-18T08:07:37.129Z,98.3
2022-09-18T08:10:03.214Z,97.9
2022-09-18T08:12:28.329Z,97.9
2022-09-18T08:14:54.453Z,98.5
2022-09-18T08:17:20.570Z,98.6
2022-09-18T08:19:46.629Z,98.1
2022-09-18T08:22:12.744Z,97.9
2022-09-18T08:24:38.819Z,98.2
2022-09-18T08:27:04.919Z,98.1
2022-09-18T08:29:31.029Z,97.7
2022-09-18T08:31:57.115Z,97.3
2022-09-18T08:34:23.216Z,95.2
2022-09-18T08:36:49.342Z,95
2022-09-18T08:41:41.556Z,95.3
2022-09-18T08:44:06.615Z,92.9
2022-09-18T08:46:32.696Z,93.1
2022-09-18T08:48:58.814Z,92.7
2022-09-18T08:51:24.889Z,93.4
2022-09-18T08:53:50.977Z,93.2
2022-09-18T08:56:17.078Z,92.4
2022-09-18T08:58:43.171Z,91.1
2022-09-18T09:01:09.293Z,91.7
2022-09-18T09:03:35.363Z,92.2
2022-09-18T09:06:01.486Z,90.9
2022-09-18T09:08:27.552Z,90.6
2022-09-18T09:10:53.634Z,89.8
2022-09-18T09:13:19.745Z,89.7
2022-09-18T09:15:44.932Z,90.1
2022-09-18T09:18:11.086Z,89.5
2022-09-18T09:20:37.139Z,90.3
2022-09-18T09:23:03.158Z,88.9
2022-09-18T09:25:29.232Z,90.3
2022-09-18T09:27:55.332Z,89.9
2022-09-18T09:30:21.418Z,89.4
2022-09-18T09:32:47.535Z,90.4
2022-09-18T09:35:13.634Z,90.2
2022-09-18T09:37:39.708Z,89.6
2022-09-18T09:40:05.987Z,90.3
2022-09-18T09:42:31.914Z,90.5
2022-09-18T09:44:57.992Z,90.1
2022-09-18T09:47:23.134Z,90.5
2022-09-18T09:49:49.204Z,90.2
2022-09-18T09:52:15.299Z,90
2022-09-18T09:54:41.412Z,89.7
2022-09-18T09:57:07.532Z,90.1
2022-09-18T09:59:33.596Z,88.4
2022-09-18T10:01:59.694Z,89.8
2022-09-18T10:04:25.783Z,89
2022-09-18T10:06:51.877Z,89.6
2022-09-18T10:09:17.971Z,89.1
2022-09-18T10:11:44.058Z,88.4
2022-09-18T10:14:10.150Z,87.3
2022-09-18T10:16:36.271Z,88
2022-09-18T10:19:01.364Z,87.9
2022-09-18T10:21:27.458Z,88.3
2022-09-18T10:23:53.582Z,88.7
2022-09-18T10:26:19.658Z,88.6
2022-09-18T10:28:45.746Z,87.8
2022-09-18T10:31:11.848Z,89.1
2022-09-18T10:33:37.941Z,88.4
2022-09-18T10:36:04.051Z,88.6
2022-09-18T10:38:30.166Z,87.1
2022-09-18T10:40:56.219Z,86.7
2022-09-18T10:43:22.318Z,87.1
2022-09-18T10:45:48.422Z,83.5
2022-09-18T10:48:14.512Z,83.1
2022-09-18T10:50:39.619Z,83.6
2022-09-18T10:53:05.716Z,81.6
2022-09-18T10:55:31.809Z,81.7
2022-09-18T10:57:57.910Z,80.3
2022-09-18T11:00:24.014Z,81
2022-09-18T11:02:50.115Z,83.2
2022-09-18T11:05:16.215Z,82.2
2022-09-18T11:07:42.283Z,83.3
2022-09-18T11:10:08.387Z,82.1
2022-09-18T11:12:34.492Z,81.5
2022-09-18T11:15:00.580Z,81.3
2022-09-18T11:17:26.672Z,81.8
2022-09-18T11:19:52.794Z,79.4
2022-09-18T11:22:17.895Z,74
2022-09-18T11:24:43.992Z,72.1
2022-09-18T11:27:10.098Z,72.8
2022-09-18T11:29:36.182Z,71.7
2022-09-18T11:32:02.273Z,70.9
2022-09-18T11:34:28.370Z,74.2
2022-09-18T11:36:54.455Z,72.5
2022-09-18T11:39:20.567Z,70.2
2022-09-18T11:41:46.657Z,71.2
2022-09-18T11:44:12.755Z,70.4
2022-09-18T11:46:38.850Z,70.1
2022-09-18T11:49:04.932Z,70.1
2022-09-18T11:51:31.045Z,69.6
2022-09-18T11:53:56.152Z,70.7
2022-09-18T11:56:22.233Z,70.2
2022-09-18T11:58:48.332Z,68.3
2022-09-18T12:01:14.433Z,65
2022-09-18T12:03:40.526Z,64.4
2022-09-18T12:06:06.614Z,63.9
2022-09-18T12:08:31.372Z,63
2022-09-18T12:10:57.454Z,64.8
2022-09-18T12:13:23.548Z,64
2022-09-18T12:15:49.621Z,64.8
2022-09-18T12:18:15.719Z,66.5
2022-09-18T12:20:41.819Z,65.8
2022-09-18T12:23:07.921Z,65.2
2022-09-18T12:25:33.007Z,65.4
2022-09-18T12:27:59.108Z,65.1
2022-09-18T12:30:25.210Z,63.4
2022-09-18T12:32:51.307Z,64.4
2022-09-18T12:35:17.387Z,63.9
2022-09-18T12:37:43.482Z,63.5
2022-09-18T12:40:09.271Z,62.2
2022-09-18T12:42:35.366Z,64.5
2022-09-18T12:45:01.453Z,63.8
2022-09-18T12:47:27.548Z,63.9
2022-09-18T12:49:53.647Z,62.8
2022-09-18T12:52:19.732Z,62.5
2022-09-18T12:54:45.828Z,61.9
2022-09-18T12:57:11.911Z,62
2022-09-18T12:59:38.014Z,64.2
2022-09-18T13:02:04.117Z,63.6
2022-09-18T13:04:30.245Z,62.6
2022-09-18T13:06:56.300Z,61.7
2022-09-18T13:09:22.394Z,62
2022-09-18T13:11:47.497Z,62.1
2022-09-18T13:14:13.652Z,62.2
2022-09-18T13:16:40.506Z,63.2
2022-09-18T13:19:06.567Z,65
2022-09-18T13:21:32.725Z,63.6
2022-09-18T13:23:58.808Z,62
2022-09-18T13:26:24.911Z,63.2
2022-09-18T13:28:50.960Z,62.1
2022-09-18T13:31:17.095Z,62.3
2022-09-18T13:33:43.208Z,62.7
2022-09-18T13:36:09.297Z,63.6
2022-09-18T13:38:35.361Z,62.4
2022-09-18T13:41:01.420Z,63.9
2022-09-18T13:43:26.582Z,64.4
2022-09-18T13:45:52.670Z,64.5
2022-09-18T13:48:18.636Z,63.7
2022-09-18T13:50:44.732Z,63.5
2022-09-18T13:53:10.835Z,63.9
2022-09-18T13:55:36.917Z,64.2
2022-09-18T13:58:03.020Z,63.8
2022-09-18T14:00:29.111Z,65.7
2022-09-18T14:02:55.194Z,65.1
2022-09-18T14:05:21.291Z,65.4
2022-09-18T14:07:47.397Z,64.4
2022-09-18T14:10:13.483Z,63.1
2022-09-18T14:12:39.600Z,62.8
2022-09-18T14:15:04.695Z,63
2022-09-18T14:17:30.772Z,64
2022-09-18T14:19:56.876Z,64.6
2022-09-18T14:22:22.961Z,64.6
2022-09-18T14:24:49.058Z,65.5
2022-09-18T14:27:15.149Z,65.2
2022-09-18T14:29:41.241Z,65.9
2022-09-18T14:32:07.351Z,65.5
2022-09-18T14:34:33.431Z,66.6
2022-09-18T14:36:59.545Z,65.9
2022-09-18T14:39:25.619Z,65.7
2022-09-18T14:41:51.726Z,65.5
2022-09-18T14:44:17.826Z,65.3
2022-09-18T14:46:42.936Z,65.5
2022-09-18T14:49:09.025Z,65.3
2022-09-18T14:51:35.139Z,65.1
2022-09-18T14:54:01.223Z,65
2022-09-18T14:56:27.310Z,64.9
2022-09-18T14:58:53.409Z,64.8
2022-09-18T15:01:19.506Z,65.4
2022-09-18T15:03:45.602Z,65.4
2022-09-18T15:06:11.697Z,66.1
2022-09-18T15:08:37.782Z,66.5
2022-09-18T15:11:03.906Z,65.4
2022-09-18T15:13:29.986Z,66.6
2022-09-18T15:15:56.092Z,65.5
2022-09-18T15:18:21.200Z,66.1
2022-09-18T15:20:47.280Z,66
2022-09-18T15:23:13.372Z,66.9
2022-09-18T15:25:39.481Z,66.3
2022-09-18T15:28:05.587Z,68
2022-09-18T15:30:31.690Z,66.7
2022-09-18T15:32:57.779Z,67.6
2022-09-18T15:35:23.886Z,67.8
2022-09-18T15:37:49.982Z,67.2
2022-09-18T15:40:16.075Z,68.2
2022-09-18T15:42:42.173Z,67.8
2022-09-18T15:45:08.272Z,68.6
2022-09-18T15:47:34.373Z,67.8
2022-09-18T15:49:59.487Z,66.6
2022-09-18T15:52:25.584Z,67.7
2022-09-18T15:54:51.672Z,66.9
2022-09-18T15:57:17.770Z,67.7
2022-09-18T15:59:43.858Z,67.3
2022-09-18T16:02:09.970Z,67.9
2022-09-18T16:04:36.050Z,67.7
2022-09-18T16:07:02.149Z,67.2
2022-09-18T16:09:28.262Z,66.5
2022-09-18T16:11:54.350Z,67.8
2022-09-18T16:14:20.433Z,69.3
2022-09-18T16:16:46.530Z,68.5
2022-09-18T16:19:12.615Z,69
2022-09-18T16:21:37.755Z,69.5
2022-09-18T16:24:03.843Z,69.2
2022-09-18T16:26:29.932Z,69.5
2022-09-18T16:28:56.032Z,70.1
2022-09-18T16:31:22.128Z,70.7
2022-09-18T16:33:48.231Z,70.5
2022-09-18T16:36:14.310Z,70.1
2022-09-18T16:38:40.405Z,68.8
2022-09-18T16:41:06.543Z,69.1
2022-09-18T16:43:32.626Z,69.6
2022-09-18T16:45:58.697Z,69.9
2022-09-18T16:48:24.803Z,69.2
2022-09-18T16:50:50.924Z,68.5
2022-09-18T16:53:16.006Z,67.9
2022-09-18T16:55:42.107Z,67.4
2022-09-18T16:58:08.195Z,67.9
2022-09-18T17:00:34.289Z,67.6
2022-09-18T17:03:00.395Z,67.5
2022-09-18T17:05:26.476Z,67.8
2022-09-18T17:07:52.567Z,67.9
2022-09-18T17:10:18.684Z,68.1
2022-09-18T17:12:44.776Z,67.4
2022-09-18T17:15:10.856Z,68.4
2022-09-18T17:17:36.961Z,67.6
2022-09-18T17:20:03.052Z,67.9
2022-09-18T17:22:29.159Z,68.1
2022-09-18T17:24:54.267Z,67.5
2022-09-18T17:27:20.381Z,67.8
2022-09-18T17:29:46.450Z,67.9
2022-09-18T17:32:12.556Z,68.4
2022-09-18T17:34:38.669Z,67.9
2022-09-18T17:37:04.742Z,68.9
2022-09-18T17:39:30.887Z,69.9
2022-09-18T17:41:56.935Z,68.5
2022-09-18T17:44:23.036Z,69.8
2022-09-18T17:46:49.117Z,71
2022-09-18T17:49:15.219Z,71.5
2022-09-18T17:51:41.324Z,73
2022-09-18T17:54:07.409Z,72.8
2022-09-18T17:56:32.518Z,73.3
2022-09-18T17:58:58.611Z,73.3
2022-09-18T18:01:24.709Z,73.8
2022-09-18T18:03:50.858Z,74.1
2022-09-18T18:06:16.907Z,74.1
2022-09-18T18:08:42.993Z,74.9
2022-09-18T18:11:09.102Z,74.7
2022-09-18T18:13:35.195Z,75.5
2022-09-18T18:16:01.298Z,76.3
2022-09-18T18:18:27.394Z,75.6
2022-09-18T18:20:53.478Z,75.8
2022-09-18T18:23:19.588Z,76.1
2022-09-18T18:25:45.680Z,76.9
2022-09-18T18:28:10.779Z,76.9
2022-09-18T18:30:36.870Z,76.9
2022-09-18T18:33:02.974Z,77.4
2022-09-18T18:35:29.060Z,76.9
2022-09-18T18:37:55.171Z,76.5
2022-09-18T18:40:21.250Z,78
2022-09-18T18:42:47.358Z,77.5
2022-09-18T18:45:13.459Z,77.4
2022-09-18T18:47:39.547Z,75.6
2022-09-18T18:50:05.647Z,77
2022-09-18T18:52:31.733Z,76.2
2022-09-18T18:54:57.825Z,75.5
2022-09-18T18:57:23.931Z,76.4
2022-09-18T18:59:49.063Z,75.3
2022-09-18T19:02:15.147Z,74.7
2022-09-18T19:04:41.225Z,75.5
2022-09-18T19:07:07.352Z,75.2
2022-09-18T19:09:33.429Z,74.3
2022-09-18T19:11:59.541Z,75.7
2022-09-18T19:14:25.646Z,75.8
2022-09-18T19:16:51.729Z,76.2
2022-09-18T19:19:17.848Z,74.9
2022-09-18T19:21:43.896Z,76
2022-09-18T19:24:09.999Z,74.9
2022-09-18T19:26:36.094Z,75.3
2022-09-18T19:29:02.195Z,75.3
2022-09-18T19:31:27.298Z,75.7
2022-09-18T19:33:53.397Z,75.7
2022-09-18T19:36:19.481Z,75.9
2022-09-18T19:38:45.626Z,74.9
2022-09-18T19:41:11.673Z,74.8
2022-09-18T19:43:37.779Z,73.6
2022-09-18T19:46:03.858Z,74.5
2022-09-18T19:48:29.978Z,74.5
2022-09-18T19:50:56.056Z,73.3
2022-09-18T19:53:22.217Z,74.8
2022-09-18T19:55:48.238Z,73.3
2022-09-18T19:58:14.360Z,72.9
2022-09-18T20:00:40.441Z,73.1
2022-09-18T20:03:05.550Z,73.5
2022-09-18T20:05:31.656Z,72
2022-09-18T20:07:57.736Z,73
2022-09-18T20:10:23.832Z,72.9
2022-09-18T20:12:49.935Z,72.9
2022-09-18T20:15:16.025Z,72.6
2022-09-18T20:17:42.132Z,73.6
2022-09-18T20:20:08.257Z,73
2022-09-18T20:22:34.305Z,73.7
2022-09-18T20:25:00.427Z,75.2
2022-09-18T20:27:26.502Z,76.2
2022-09-18T20:32:18.714Z,77.9
2022-09-18T20:34:43.811Z,77.8
2022-09-18T20:37:09.894Z,79.7
2022-09-18T20:39:35.992Z,82.1
2022-09-18T20:42:02.089Z,82.6
2022-09-18T20:44:28.192Z,83.2
2022-09-18T20:46:54.287Z,82.9
2022-09-18T20:49:19.418Z,84.8
2022-09-18T20:51:45.491Z,85.5
2022-09-18T20:54:11.598Z,85.4
2022-09-18T20:56:37.670Z,86.4
2022-09-18T20:59:03.787Z,87.2
2022-09-18T21:01:29.887Z,88.1
2022-09-18T21:03:55.977Z,87.3
2022-09-18T21:06:22.074Z,88.1
2022-09-18T21:08:48.193Z,87.9
2022-09-18T21:11:14.250Z,88.2
2022-09-18T21:13:40.342Z,88.8
2022-09-18T21:16:06.437Z,89.1
2022-09-18T21:18:32.543Z,88.7
2022-09-18T21:20:57.657Z,89.4
2022-09-18T21:23:23.766Z,90.2
2022-09-18T21:25:49.846Z,88.7
2022-09-18T21:28:15.954Z,89.7
2022-09-18T21:30:42.029Z,87.7
2022-09-18T21:33:08.118Z,89.1
2022-09-18T21:35:34.238Z,89
2022-09-18T21:38:00.306Z,88.5
2022-09-18T21:40:26.406Z,89
2022-09-18T21:42:52.503Z,88.8
2022-09-18T21:45:18.652Z,88.3
2022-09-18T21:47:44.745Z,89.6
2022-09-18T21:50:10.789Z,90
2022-09-18T21:52:35.904Z,89.5
2022-09-18T21:55:02.006Z,89.1
2022-09-18T21:57:28.107Z,89.4
2022-09-18T21:59:54.188Z,89
2022-09-18T22:02:20.285Z,88.5
2022-09-18T22:04:46.377Z,89.5
2022-09-18T22:07:12.502Z,89.4
2022-09-18T22:09:38.580Z,89.4
2022-09-18T22:12:04.676Z,88.7
2022-09-18T22:14:30.773Z,88
2022-09-18T22:16:56.856Z,88.2
2022-09-18T22:19:22.969Z,88.6
2022-09-18T22:21:49.052Z,87.9
2022-09-18T22:24:14.160Z,87.7
2022-09-18T22:26:40.250Z,87.4
2022-09-18T22:29:06.357Z,88.4
2022-09-18T22:31:32.477Z,88.1
2022-09-18T22:33:58.638Z,89.1
2022-09-18T22:36:24.648Z,88.8
2022-09-18T22:38:50.747Z,89
2022-09-18T22:41:16.893Z,89.3
2022-09-18T22:43:42.957Z,89.9
2022-09-18T22:46:09.132Z,90.8
2022-09-18T22:48:35.122Z,91.8
2022-09-18T22:51:01.210Z,92.1
2022-09-18T22:53:27.304Z,92.2
2022-09-18T22:55:52.443Z,93.5
2022-09-18T22:58:18.527Z,93.6
2022-09-18T23:00:44.609Z,94.6
2022-09-18T23:03:10.701Z,95.4
2022-09-18T23:05:36.818Z,95.8
2022-09-18T23:08:02.896Z,96.6
2022-09-18T23:10:29.014Z,97.2
2022-09-18T23:12:55.103Z,97.6
2022-09-18T23:15:21.176Z,98.2
2022-09-18T23:17:47.278Z,99
2022-09-18T23:20:13.385Z,97.9
2022-09-18T23:22:39.503Z,99
2022-09-18T23:25:05.581Z,99.8
2022-09-18T23:27:30.674Z,99.2
2022-09-18T23:29:56.762Z,98.3
2022-09-18T23:32:22.862Z,98.7
2022-09-18T23:34:48.986Z,98.3
2022-09-18T23:37:15.060Z,99
2022-09-18T23:39:41.154Z,99.6
2022-09-18T23:42:07.255Z,99.1
2022-09-18T23:44:33.346Z,99.1
2022-09-18T23:46:59.440Z,100
2022-09-18T23:49:25.533Z,100
2022-09-18T23:51:51.638Z,100
2022-09-18T23:54:17.717Z,100
2022-09-18T23:56:43.834Z,100
2022-09-18T23:59:08.939Z,100
